sensor_id;sensor_type;location;lat;lon;timestamp;temperature;humidity
7562;DHT22;3822;48.784;9.174;2023-09-07T00:00:15;23.50;65.40
7562;DHT22;3822;48.784;9.174;2023-09-07T00:02:51;23.50;65.70
7562;DHT22;3822;48.784;9.174;2023-09-07T00:05:17;23.50;65.80
7562;DHT22;3822;48.784;9.174;2023-09-07T00:10:39;23.40;66.10
7562;DHT22;3822;48.784;9.174;2023-09-07T00:16:09;23.40;66.40
7562;DHT22;3822;48.784;9.174;2023-09-07T00:25:28;23.20;66.80
7562;DHT22;3822;48.784;9.174;2023-09-07T00:30:48;23.10;67.00
7562;DHT22;3822;48.784;9.174;2023-09-07T00:33:14;23.10;67.10
7562;DHT22;3822;48.784;9.174;2023-09-07T00:38:50;23.10;67.50
7562;DHT22;3822;48.784;9.174;2023-09-07T00:41:26;23.00;67.50
7562;DHT22;3822;48.784;9.174;2023-09-07T00:43:55;23.00;67.70
7562;DHT22;3822;48.784;9.174;2023-09-07T00:46:24;23.00;67.90
7562;DHT22;3822;48.784;9.174;2023-09-07T00:48:59;22.90;67.80
7562;DHT22;3822;48.784;9.174;2023-09-07T00:51:35;22.90;67.80
7562;DHT22;3822;48.784;9.174;2023-09-07T00:54:30;22.90;67.90
7562;DHT22;3822;48.784;9.174;2023-09-07T01:00:08;22.80;68.10
7562;DHT22;3822;48.784;9.174;2023-09-07T01:02:50;22.80;68.10
7562;DHT22;3822;48.784;9.174;2023-09-07T01:05:27;22.70;68.10
7562;DHT22;3822;48.784;9.174;2023-09-07T01:21:53;22.50;68.30
7562;DHT22;3822;48.784;9.174;2023-09-07T01:30:34;22.40;68.70
7562;DHT22;3822;48.784;9.174;2023-09-07T01:33:01;22.40;69.00
7562;DHT22;3822;48.784;9.174;2023-09-07T01:35:35;22.30;69.30
7562;DHT22;3822;48.784;9.174;2023-09-07T01:41:19;22.30;69.80
7562;DHT22;3822;48.784;9.174;2023-09-07T01:43:57;22.30;70.00
7562;DHT22;3822;48.784;9.174;2023-09-07T01:49:30;22.20;70.60
7562;DHT22;3822;48.784;9.174;2023-09-07T01:51:56;22.10;70.90
7562;DHT22;3822;48.784;9.174;2023-09-07T01:54:29;22.10;71.20
7562;DHT22;3822;48.784;9.174;2023-09-07T02:00:22;22.10;71.80
7562;DHT22;3822;48.784;9.174;2023-09-07T02:02:58;22.00;72.00
7562;DHT22;3822;48.784;9.174;2023-09-07T02:08:15;22.00;72.60
7562;DHT22;3822;48.784;9.174;2023-09-07T02:11:16;21.90;72.80
7562;DHT22;3822;48.784;9.174;2023-09-07T02:13:46;21.90;73.10
7562;DHT22;3822;48.784;9.174;2023-09-07T02:16:34;21.90;73.50
7562;DHT22;3822;48.784;9.174;2023-09-07T02:19:16;21.80;73.70
7562;DHT22;3822;48.784;9.174;2023-09-07T02:24:42;21.70;74.00
7562;DHT22;3822;48.784;9.174;2023-09-07T02:27:17;21.70;74.10
7562;DHT22;3822;48.784;9.174;2023-09-07T02:29:43;21.70;74.20
7562;DHT22;3822;48.784;9.174;2023-09-07T02:35:32;21.60;74.30
7562;DHT22;3822;48.784;9.174;2023-09-07T02:38:10;21.60;74.20
7562;DHT22;3822;48.784;9.174;2023-09-07T02:40:40;21.60;74.30
7562;DHT22;3822;48.784;9.174;2023-09-07T02:43:19;21.50;74.50
7562;DHT22;3822;48.784;9.174;2023-09-07T02:52:48;21.40;74.90
7562;DHT22;3822;48.784;9.174;2023-09-07T02:55:47;21.40;75.00
7562;DHT22;3822;48.784;9.174;2023-09-07T02:58:16;21.30;75.20
7562;DHT22;3822;48.784;9.174;2023-09-07T03:00:54;21.30;75.50
7562;DHT22;3822;48.784;9.174;2023-09-07T03:03:24;21.30;75.80
7562;DHT22;3822;48.784;9.174;2023-09-07T03:12:08;21.20;76.30
7562;DHT22;3822;48.784;9.174;2023-09-07T03:14:46;21.20;76.70
7562;DHT22;3822;48.784;9.174;2023-09-07T03:17:21;21.10;76.90
7562;DHT22;3822;48.784;9.174;2023-09-07T03:19:50;21.10;77.10
7562;DHT22;3822;48.784;9.174;2023-09-07T03:22:16;21.10;77.40
7562;DHT22;3822;48.784;9.174;2023-09-07T03:24:52;21.10;77.60
7562;DHT22;3822;48.784;9.174;2023-09-07T03:27:18;21.10;77.90
7562;DHT22;3822;48.784;9.174;2023-09-07T03:36:41;20.80;79.70
7562;DHT22;3822;48.784;9.174;2023-09-07T03:39:16;20.60;80.10
7562;DHT22;3822;48.784;9.174;2023-09-07T03:41:47;20.50;80.10
7562;DHT22;3822;48.784;9.174;2023-09-07T03:44:22;20.50;80.30
7562;DHT22;3822;48.784;9.174;2023-09-07T03:46:48;20.50;80.60
7562;DHT22;3822;48.784;9.174;2023-09-07T03:49:24;20.40;80.70
7562;DHT22;3822;48.784;9.174;2023-09-07T03:54:50;20.40;81.20
7562;DHT22;3822;48.784;9.174;2023-09-07T03:57:26;20.40;81.40
7562;DHT22;3822;48.784;9.174;2023-09-07T03:59:53;20.40;81.60
7562;DHT22;3822;48.784;9.174;2023-09-07T04:02:46;20.40;81.80
7562;DHT22;3822;48.784;9.174;2023-09-07T04:05:18;20.30;81.80
7562;DHT22;3822;48.784;9.174;2023-09-07T04:07:45;20.30;82.00
7562;DHT22;3822;48.784;9.174;2023-09-07T04:10:17;20.30;82.10
7562;DHT22;3822;48.784;9.174;2023-09-07T04:12:46;20.30;82.20
7562;DHT22;3822;48.784;9.174;2023-09-07T04:15:13;20.30;82.40
7562;DHT22;3822;48.784;9.174;2023-09-07T04:20:48;20.30;82.30
7562;DHT22;3822;48.784;9.174;2023-09-07T04:23:14;20.30;82.20
7562;DHT22;3822;48.784;9.174;2023-09-07T04:26:03;20.20;82.10
7562;DHT22;3822;48.784;9.174;2023-09-07T04:28:36;20.20;82.00
7562;DHT22;3822;48.784;9.174;2023-09-07T04:31:03;20.20;81.90
7562;DHT22;3822;48.784;9.174;2023-09-07T04:33:54;20.20;82.00
7562;DHT22;3822;48.784;9.174;2023-09-07T04:36:23;20.20;81.90
7562;DHT22;3822;48.784;9.174;2023-09-07T04:39:23;20.20;81.90
7562;DHT22;3822;48.784;9.174;2023-09-07T04:44:39;20.10;81.90
7562;DHT22;3822;48.784;9.174;2023-09-07T04:50:12;20.10;82.00
7562;DHT22;3822;48.784;9.174;2023-09-07T04:52:48;20.10;82.20
7562;DHT22;3822;48.784;9.174;2023-09-07T04:58:16;20.00;82.60
7562;DHT22;3822;48.784;9.174;2023-09-07T05:03:49;20.00;83.20
7562;DHT22;3822;48.784;9.174;2023-09-07T05:06:38;20.00;83.60
7562;DHT22;3822;48.784;9.174;2023-09-07T05:12:07;19.80;84.90
7562;DHT22;3822;48.784;9.174;2023-09-07T05:14:41;19.80;85.30
7562;DHT22;3822;48.784;9.174;2023-09-07T05:17:10;19.70;85.80
7562;DHT22;3822;48.784;9.174;2023-09-07T05:19:40;19.60;86.30
7562;DHT22;3822;48.784;9.174;2023-09-07T05:25:14;19.40;87.90
7562;DHT22;3822;48.784;9.174;2023-09-07T05:28:02;19.20;89.30
7562;DHT22;3822;48.784;9.174;2023-09-07T05:30:34;19.10;89.70
7562;DHT22;3822;48.784;9.174;2023-09-07T05:36:00;19.10;90.00
7562;DHT22;3822;48.784;9.174;2023-09-07T05:38:30;19.10;90.00
7562;DHT22;3822;48.784;9.174;2023-09-07T05:43:59;19.20;90.10
7562;DHT22;3822;48.784;9.174;2023-09-07T05:46:31;19.30;90.10
7562;DHT22;3822;48.784;9.174;2023-09-07T05:49:12;19.30;90.40
7562;DHT22;3822;48.784;9.174;2023-09-07T05:51:48;19.30;90.50
7562;DHT22;3822;48.784;9.174;2023-09-07T05:54:20;19.30;90.50
7562;DHT22;3822;48.784;9.174;2023-09-07T05:57:04;19.30;90.60
7562;DHT22;3822;48.784;9.174;2023-09-07T05:59:46;19.30;90.60
7562;DHT22;3822;48.784;9.174;2023-09-07T06:02:24;19.40;90.70
7562;DHT22;3822;48.784;9.174;2023-09-07T06:04:54;19.40;90.70
7562;DHT22;3822;48.784;9.174;2023-09-07T06:07:20;19.50;90.70
7562;DHT22;3822;48.784;9.174;2023-09-07T06:09:46;19.60;90.70
7562;DHT22;3822;48.784;9.174;2023-09-07T06:12:13;19.70;90.60
7562;DHT22;3822;48.784;9.174;2023-09-07T06:15:00;19.80;90.70
7562;DHT22;3822;48.784;9.174;2023-09-07T06:17:32;19.80;90.50
7562;DHT22;3822;48.784;9.174;2023-09-07T06:20:06;19.90;90.50
7562;DHT22;3822;48.784;9.174;2023-09-07T06:31:54;20.10;90.40
7562;DHT22;3822;48.784;9.174;2023-09-07T06:34:20;20.10;90.40
7562;DHT22;3822;48.784;9.174;2023-09-07T06:36:50;20.10;90.40
7562;DHT22;3822;48.784;9.174;2023-09-07T06:42:38;20.30;90.40
7562;DHT22;3822;48.784;9.174;2023-09-07T06:45:05;20.30;90.20
7562;DHT22;3822;48.784;9.174;2023-09-07T06:50:28;20.50;90.20
7562;DHT22;3822;48.784;9.174;2023-09-07T06:53:07;20.50;90.10
7562;DHT22;3822;48.784;9.174;2023-09-07T06:55:38;20.50;90.10
7562;DHT22;3822;48.784;9.174;2023-09-07T07:01:01;20.70;90.30
7562;DHT22;3822;48.784;9.174;2023-09-07T07:03:28;20.80;90.00
7562;DHT22;3822;48.784;9.174;2023-09-07T07:06:07;20.90;89.70
7562;DHT22;3822;48.784;9.174;2023-09-07T07:11:34;21.00;89.30
7562;DHT22;3822;48.784;9.174;2023-09-07T07:14:12;21.10;89.50
7562;DHT22;3822;48.784;9.174;2023-09-07T07:16:42;21.20;89.30
7562;DHT22;3822;48.784;9.174;2023-09-07T07:19:20;21.30;89.00
7562;DHT22;3822;48.784;9.174;2023-09-07T07:24:56;21.40;88.40
7562;DHT22;3822;48.784;9.174;2023-09-07T07:27:34;21.50;88.40
7562;DHT22;3822;48.784;9.174;2023-09-07T07:30:00;21.60;88.30
7562;DHT22;3822;48.784;9.174;2023-09-07T07:35:36;21.80;88.10
7562;DHT22;3822;48.784;9.174;2023-09-07T07:38:03;21.80;87.60
7562;DHT22;3822;48.784;9.174;2023-09-07T07:40:39;21.90;87.50
7562;DHT22;3822;48.784;9.174;2023-09-07T07:43:06;22.00;87.50
7562;DHT22;3822;48.784;9.174;2023-09-07T07:45:38;22.00;87.10
7562;DHT22;3822;48.784;9.174;2023-09-07T07:48:14;22.10;86.90
7562;DHT22;3822;48.784;9.174;2023-09-07T07:50:43;22.10;86.70
7562;DHT22;3822;48.784;9.174;2023-09-07T07:53:15;22.20;86.50
7562;DHT22;3822;48.784;9.174;2023-09-07T07:55:45;22.30;86.40
7562;DHT22;3822;48.784;9.174;2023-09-07T07:58:12;22.40;86.20
7562;DHT22;3822;48.784;9.174;2023-09-07T08:00:47;22.40;85.80
7562;DHT22;3822;48.784;9.174;2023-09-07T08:06:12;22.60;85.70
7562;DHT22;3822;48.784;9.174;2023-09-07T08:08:47;22.60;85.50
7562;DHT22;3822;48.784;9.174;2023-09-07T08:11:32;22.70;85.20
7562;DHT22;3822;48.784;9.174;2023-09-07T08:14:01;22.80;85.10
7562;DHT22;3822;48.784;9.174;2023-09-07T08:16:40;22.90;85.00
7562;DHT22;3822;48.784;9.174;2023-09-07T08:22:06;23.00;84.40
7562;DHT22;3822;48.784;9.174;2023-09-07T08:24:42;23.10;84.10
7562;DHT22;3822;48.784;9.174;2023-09-07T08:27:10;23.10;83.90
7562;DHT22;3822;48.784;9.174;2023-09-07T08:29:45;23.20;84.00
7562;DHT22;3822;48.784;9.174;2023-09-07T08:32:25;23.30;83.80
7562;DHT22;3822;48.784;9.174;2023-09-07T08:40:54;23.50;82.70
7562;DHT22;3822;48.784;9.174;2023-09-07T08:43:29;23.60;82.10
7562;DHT22;3822;48.784;9.174;2023-09-07T08:49:06;23.70;81.90
7562;DHT22;3822;48.784;9.174;2023-09-07T08:51:36;23.70;81.70
7562;DHT22;3822;48.784;9.174;2023-09-07T08:54:09;23.80;81.60
7562;DHT22;3822;48.784;9.174;2023-09-07T08:56:51;23.90;81.50
7562;DHT22;3822;48.784;9.174;2023-09-07T08:59:22;24.10;81.60
7562;DHT22;3822;48.784;9.174;2023-09-07T09:01:49;23.90;81.40
7562;DHT22;3822;48.784;9.174;2023-09-07T09:04:21;23.20;80.60
7562;DHT22;3822;48.784;9.174;2023-09-07T09:13:03;24.00;81.10
7562;DHT22;3822;48.784;9.174;2023-09-07T09:15:29;24.10;81.80
7562;DHT22;3822;48.784;9.174;2023-09-07T09:20:56;24.20;81.00
7562;DHT22;3822;48.784;9.174;2023-09-07T09:23:43;24.30;80.90
7562;DHT22;3822;48.784;9.174;2023-09-07T09:26:13;24.30;81.00
7562;DHT22;3822;48.784;9.174;2023-09-07T09:28:45;24.30;80.90
7562;DHT22;3822;48.784;9.174;2023-09-07T09:31:17;24.40;80.90
7562;DHT22;3822;48.784;9.174;2023-09-07T09:33:47;24.50;80.90
7562;DHT22;3822;48.784;9.174;2023-09-07T09:36:33;23.40;79.90
7562;DHT22;3822;48.784;9.174;2023-09-07T09:44:49;24.70;80.70
7562;DHT22;3822;48.784;9.174;2023-09-07T09:47:19;24.80;80.80
7562;DHT22;3822;48.784;9.174;2023-09-07T09:50:34;24.80;80.60
7562;DHT22;3822;48.784;9.174;2023-09-07T09:53:10;24.80;80.80
7562;DHT22;3822;48.784;9.174;2023-09-07T09:58:42;24.90;80.80
7562;DHT22;3822;48.784;9.174;2023-09-07T10:04:32;24.90;80.50
7562;DHT22;3822;48.784;9.174;2023-09-07T10:10:38;25.10;80.80
7562;DHT22;3822;48.784;9.174;2023-09-07T10:13:07;25.10;80.60
7562;DHT22;3822;48.784;9.174;2023-09-07T10:15:34;25.10;80.50
7562;DHT22;3822;48.784;9.174;2023-09-07T10:18:17;25.20;80.40
7562;DHT22;3822;48.784;9.174;2023-09-07T10:23:48;25.30;80.20
7562;DHT22;3822;48.784;9.174;2023-09-07T10:26:20;25.30;80.50
7562;DHT22;3822;48.784;9.174;2023-09-07T10:29:00;25.30;80.20
7562;DHT22;3822;48.784;9.174;2023-09-07T10:31:29;25.30;80.20
7562;DHT22;3822;48.784;9.174;2023-09-07T10:40:06;25.50;79.90
7562;DHT22;3822;48.784;9.174;2023-09-07T10:42:49;25.60;80.20
7562;DHT22;3822;48.784;9.174;2023-09-07T10:49:10;25.70;80.00
7562;DHT22;3822;48.784;9.174;2023-09-07T10:51:49;25.90;79.90
7562;DHT22;3822;48.784;9.174;2023-09-07T10:54:27;26.00;79.60
7562;DHT22;3822;48.784;9.174;2023-09-07T11:00:59;26.10;79.00
7562;DHT22;3822;48.784;9.174;2023-09-07T11:03:51;26.20;78.70
7562;DHT22;3822;48.784;9.174;2023-09-07T11:06:23;26.30;78.40
7562;DHT22;3822;48.784;9.174;2023-09-07T11:12:06;26.40;78.00
7562;DHT22;3822;48.784;9.174;2023-09-07T11:14:59;26.60;77.70
7562;DHT22;3822;48.784;9.174;2023-09-07T11:17:26;26.50;77.60
7562;DHT22;3822;48.784;9.174;2023-09-07T11:20:05;26.80;77.60
7562;DHT22;3822;48.784;9.174;2023-09-07T11:22:44;26.90;76.90
7562;DHT22;3822;48.784;9.174;2023-09-07T11:28:08;27.10;76.20
7562;DHT22;3822;48.784;9.174;2023-09-07T11:33:42;27.30;75.70
7562;DHT22;3822;48.784;9.174;2023-09-07T11:36:16;27.40;75.70
7562;DHT22;3822;48.784;9.174;2023-09-07T11:38:43;27.60;75.50
7562;DHT22;3822;48.784;9.174;2023-09-07T11:41:27;27.70;74.80
7562;DHT22;3822;48.784;9.174;2023-09-07T11:44:00;27.80;74.20
7562;DHT22;3822;48.784;9.174;2023-09-07T11:46:36;27.90;74.10
7562;DHT22;3822;48.784;9.174;2023-09-07T11:49:14;28.10;73.70
7562;DHT22;3822;48.784;9.174;2023-09-07T11:51:45;28.30;73.40
7562;DHT22;3822;48.784;9.174;2023-09-07T11:54:24;28.40;72.70
7562;DHT22;3822;48.784;9.174;2023-09-07T11:56:53;28.50;72.50
7562;DHT22;3822;48.784;9.174;2023-09-07T11:59:25;28.70;71.90
7562;DHT22;3822;48.784;9.174;2023-09-07T12:02:06;28.90;71.40
7562;DHT22;3822;48.784;9.174;2023-09-07T12:04:32;29.00;70.90
7562;DHT22;3822;48.784;9.174;2023-09-07T12:13:02;29.40;70.00
7562;DHT22;3822;48.784;9.174;2023-09-07T12:15:31;29.60;69.30
7562;DHT22;3822;48.784;9.174;2023-09-07T12:18:06;29.70;68.80
7562;DHT22;3822;48.784;9.174;2023-09-07T12:20:33;29.90;68.50
7562;DHT22;3822;48.784;9.174;2023-09-07T12:23:03;30.00;67.30
7562;DHT22;3822;48.784;9.174;2023-09-07T12:25:36;30.10;66.50
7562;DHT22;3822;48.784;9.174;2023-09-07T12:28:11;30.20;66.40
7562;DHT22;3822;48.784;9.174;2023-09-07T12:30:37;30.30;66.20
7562;DHT22;3822;48.784;9.174;2023-09-07T12:42:03;30.70;63.90
7562;DHT22;3822;48.784;9.174;2023-09-07T12:44:29;30.80;62.80
7562;DHT22;3822;48.784;9.174;2023-09-07T12:46:56;30.90;61.90
7562;DHT22;3822;48.784;9.174;2023-09-07T12:49:37;31.00;61.80
7562;DHT22;3822;48.784;9.174;2023-09-07T12:52:04;31.20;61.70
7562;DHT22;3822;48.784;9.174;2023-09-07T12:54:35;31.30;60.30
7562;DHT22;3822;48.784;9.174;2023-09-07T13:04:07;31.60;58.50
7562;DHT22;3822;48.784;9.174;2023-09-07T13:06:39;31.70;57.60
7562;DHT22;3822;48.784;9.174;2023-09-07T13:09:08;31.80;57.70
7562;DHT22;3822;48.784;9.174;2023-09-07T13:14:39;32.10;57.60
7562;DHT22;3822;48.784;9.174;2023-09-07T13:17:16;32.30;57.10
7562;DHT22;3822;48.784;9.174;2023-09-07T13:22:30;32.60;56.00
7562;DHT22;3822;48.784;9.174;2023-09-07T13:31:18;33.00;55.80
7562;DHT22;3822;48.784;9.174;2023-09-07T13:37:13;33.40;54.80
7562;DHT22;3822;48.784;9.174;2023-09-07T13:39:55;33.50;54.40
7562;DHT22;3822;48.784;9.174;2023-09-07T13:42:25;33.60;54.30
7562;DHT22;3822;48.784;9.174;2023-09-07T13:45:00;33.80;54.00
7562;DHT22;3822;48.784;9.174;2023-09-07T13:47:33;34.00;53.70
7562;DHT22;3822;48.784;9.174;2023-09-07T13:53:33;34.30;52.80
7562;DHT22;3822;48.784;9.174;2023-09-07T13:56:06;34.40;52.00
7562;DHT22;3822;48.784;9.174;2023-09-07T13:58:47;34.60;51.50
7562;DHT22;3822;48.784;9.174;2023-09-07T14:01:26;34.70;50.90
7562;DHT22;3822;48.784;9.174;2023-09-07T14:03:54;34.90;50.60
7562;DHT22;3822;48.784;9.174;2023-09-07T14:06:21;35.00;50.30
7562;DHT22;3822;48.784;9.174;2023-09-07T14:08:49;35.00;49.60
7562;DHT22;3822;48.784;9.174;2023-09-07T14:11:17;35.20;49.50
7562;DHT22;3822;48.784;9.174;2023-09-07T14:13:54;35.30;49.30
7562;DHT22;3822;48.784;9.174;2023-09-07T14:16:21;35.50;48.60
7562;DHT22;3822;48.784;9.174;2023-09-07T14:18:53;35.60;48.80
7562;DHT22;3822;48.784;9.174;2023-09-07T14:21:29;35.70;48.70
7562;DHT22;3822;48.784;9.174;2023-09-07T14:24:02;35.80;48.40
7562;DHT22;3822;48.784;9.174;2023-09-07T14:26:36;36.00;48.10
7562;DHT22;3822;48.784;9.174;2023-09-07T14:29:22;36.00;47.70
7562;DHT22;3822;48.784;9.174;2023-09-07T14:31:55;36.10;47.20
7562;DHT22;3822;48.784;9.174;2023-09-07T14:37:31;36.40;46.50
7562;DHT22;3822;48.784;9.174;2023-09-07T14:40:05;36.50;45.10
7562;DHT22;3822;48.784;9.174;2023-09-07T14:42:33;36.60;45.20
7562;DHT22;3822;48.784;9.174;2023-09-07T14:45:03;36.70;45.60
7562;DHT22;3822;48.784;9.174;2023-09-07T14:50:27;36.90;45.20
7562;DHT22;3822;48.784;9.174;2023-09-07T14:52:54;37.00;44.70
7562;DHT22;3822;48.784;9.174;2023-09-07T14:55:21;37.10;44.60
7562;DHT22;3822;48.784;9.174;2023-09-07T14:57:47;37.20;44.10
7562;DHT22;3822;48.784;9.174;2023-09-07T15:03:26;37.40;43.50
7562;DHT22;3822;48.784;9.174;2023-09-07T15:06:08;37.50;43.30
7562;DHT22;3822;48.784;9.174;2023-09-07T15:08:38;37.60;43.00
7562;DHT22;3822;48.784;9.174;2023-09-07T15:11:13;37.80;42.80
7562;DHT22;3822;48.784;9.174;2023-09-07T15:13:42;37.80;42.10
7562;DHT22;3822;48.784;9.174;2023-09-07T15:16:13;37.90;42.20
7562;DHT22;3822;48.784;9.174;2023-09-07T15:18:42;38.00;42.10
7562;DHT22;3822;48.784;9.174;2023-09-07T15:21:08;38.10;41.70
7562;DHT22;3822;48.784;9.174;2023-09-07T15:23:38;38.20;41.60
7562;DHT22;3822;48.784;9.174;2023-09-07T15:26:07;38.30;41.60
7562;DHT22;3822;48.784;9.174;2023-09-07T15:32:18;38.40;41.30
7562;DHT22;3822;48.784;9.174;2023-09-07T15:34:51;38.50;41.30
7562;DHT22;3822;48.784;9.174;2023-09-07T15:37:29;38.60;41.20
7562;DHT22;3822;48.784;9.174;2023-09-07T15:39:55;38.70;40.90
7562;DHT22;3822;48.784;9.174;2023-09-07T15:42:31;38.70;40.40
7562;DHT22;3822;48.784;9.174;2023-09-07T15:48:34;38.80;39.90
7562;DHT22;3822;48.784;9.174;2023-09-07T15:51:04;38.90;39.70
7562;DHT22;3822;48.784;9.174;2023-09-07T15:53:36;38.90;39.50
7562;DHT22;3822;48.784;9.174;2023-09-07T15:56:03;39.00;39.30
7562;DHT22;3822;48.784;9.174;2023-09-07T15:58:41;39.00;39.10
7562;DHT22;3822;48.784;9.174;2023-09-07T16:07:20;39.10;38.70
7562;DHT22;3822;48.784;9.174;2023-09-07T16:09:46;39.20;38.50
7562;DHT22;3822;48.784;9.174;2023-09-07T16:15:09;39.30;38.10
7562;DHT22;3822;48.784;9.174;2023-09-07T16:20:49;39.30;37.20
7562;DHT22;3822;48.784;9.174;2023-09-07T16:23:32;39.40;37.10
7562;DHT22;3822;48.784;9.174;2023-09-07T16:26:01;39.40;36.90
7562;DHT22;3822;48.784;9.174;2023-09-07T16:31:18;39.40;36.30
7562;DHT22;3822;48.784;9.174;2023-09-07T16:33:49;39.40;36.30
7562;DHT22;3822;48.784;9.174;2023-09-07T16:36:25;39.40;36.20
7562;DHT22;3822;48.784;9.174;2023-09-07T16:39:17;39.40;36.00
7562;DHT22;3822;48.784;9.174;2023-09-07T16:41:55;39.40;35.90
7562;DHT22;3822;48.784;9.174;2023-09-07T16:44:43;39.30;35.70
7562;DHT22;3822;48.784;9.174;2023-09-07T16:47:45;39.30;35.60
7562;DHT22;3822;48.784;9.174;2023-09-07T16:50:12;39.20;35.50
7562;DHT22;3822;48.784;9.174;2023-09-07T16:52:46;39.20;35.50
7562;DHT22;3822;48.784;9.174;2023-09-07T16:55:15;39.10;35.40
7562;DHT22;3822;48.784;9.174;2023-09-07T16:57:44;39.00;35.30
7562;DHT22;3822;48.784;9.174;2023-09-07T17:02:59;38.80;35.10
7562;DHT22;3822;48.784;9.174;2023-09-07T17:05:26;38.60;35.00
7562;DHT22;3822;48.784;9.174;2023-09-07T17:10:57;38.30;35.10
7562;DHT22;3822;48.784;9.174;2023-09-07T17:13:45;37.90;35.10
7562;DHT22;3822;48.784;9.174;2023-09-07T17:22:04;37.20;35.40
7562;DHT22;3822;48.784;9.174;2023-09-07T17:24:36;36.90;35.70
7562;DHT22;3822;48.784;9.174;2023-09-07T17:27:02;36.60;35.70
7562;DHT22;3822;48.784;9.174;2023-09-07T17:35:52;35.90;36.30
7562;DHT22;3822;48.784;9.174;2023-09-07T17:38:23;35.70;36.60
7562;DHT22;3822;48.784;9.174;2023-09-07T17:47:08;35.00;37.30
7562;DHT22;3822;48.784;9.174;2023-09-07T17:49:35;34.80;37.70
7562;DHT22;3822;48.784;9.174;2023-09-07T17:52:10;34.70;38.00
7562;DHT22;3822;48.784;9.174;2023-09-07T17:58:05;34.30;38.60
7562;DHT22;3822;48.784;9.174;2023-09-07T18:00:37;34.10;39.10
7562;DHT22;3822;48.784;9.174;2023-09-07T18:03:06;33.90;39.50
7562;DHT22;3822;48.784;9.174;2023-09-07T18:08:37;33.70;40.50
7562;DHT22;3822;48.784;9.174;2023-09-07T18:11:32;33.50;41.00
7562;DHT22;3822;48.784;9.174;2023-09-07T18:14:20;33.30;41.50
7562;DHT22;3822;48.784;9.174;2023-09-07T18:16:53;33.20;42.00
7562;DHT22;3822;48.784;9.174;2023-09-07T18:19:26;33.00;42.30
7562;DHT22;3822;48.784;9.174;2023-09-07T18:22:06;32.80;42.80
7562;DHT22;3822;48.784;9.174;2023-09-07T18:24:34;32.70;43.30
7562;DHT22;3822;48.784;9.174;2023-09-07T18:27:07;32.60;43.60
7562;DHT22;3822;48.784;9.174;2023-09-07T18:35:58;32.20;44.40
7562;DHT22;3822;48.784;9.174;2023-09-07T18:41:30;31.90;45.00
7562;DHT22;3822;48.784;9.174;2023-09-07T18:43:57;31.80;45.20
7562;DHT22;3822;48.784;9.174;2023-09-07T18:46:26;31.70;45.50
7562;DHT22;3822;48.784;9.174;2023-09-07T18:48:58;30.50;45.00
7562;DHT22;3822;48.784;9.174;2023-09-07T18:54:25;31.40;46.10
7562;DHT22;3822;48.784;9.174;2023-09-07T18:57:04;31.20;46.40
7562;DHT22;3822;48.784;9.174;2023-09-07T18:59:33;31.10;46.60
7562;DHT22;3822;48.784;9.174;2023-09-07T19:02:06;31.00;46.70
7562;DHT22;3822;48.784;9.174;2023-09-07T19:04:32;30.90;46.80
7562;DHT22;3822;48.784;9.174;2023-09-07T19:09:59;30.70;47.10
7562;DHT22;3822;48.784;9.174;2023-09-07T19:12:25;30.60;47.30
7562;DHT22;3822;48.784;9.174;2023-09-07T19:15:03;30.50;47.40
7562;DHT22;3822;48.784;9.174;2023-09-07T19:17:41;30.40;47.60
7562;DHT22;3822;48.784;9.174;2023-09-07T19:23:30;30.30;48.00
7562;DHT22;3822;48.784;9.174;2023-09-07T19:29:22;30.10;48.40
7562;DHT22;3822;48.784;9.174;2023-09-07T19:31:57;30.00;48.70
7562;DHT22;3822;48.784;9.174;2023-09-07T19:35:01;29.90;48.90
7562;DHT22;3822;48.784;9.174;2023-09-07T19:37:42;29.80;49.10
7562;DHT22;3822;48.784;9.174;2023-09-07T19:40:14;29.70;49.30
7562;DHT22;3822;48.784;9.174;2023-09-07T19:49:14;29.50;50.00
7562;DHT22;3822;48.784;9.174;2023-09-07T19:51:51;29.40;50.20
7562;DHT22;3822;48.784;9.174;2023-09-07T19:54:18;29.30;50.40
7562;DHT22;3822;48.784;9.174;2023-09-07T19:56:53;29.30;50.60
7562;DHT22;3822;48.784;9.174;2023-09-07T19:59:41;29.20;50.80
7562;DHT22;3822;48.784;9.174;2023-09-07T20:02:16;29.10;51.00
7562;DHT22;3822;48.784;9.174;2023-09-07T20:11:55;28.90;51.60
7562;DHT22;3822;48.784;9.174;2023-09-07T20:14:41;28.70;51.70
7562;DHT22;3822;48.784;9.174;2023-09-07T20:23:03;28.50;52.40
7562;DHT22;3822;48.784;9.174;2023-09-07T20:25:30;28.50;52.80
7562;DHT22;3822;48.784;9.174;2023-09-07T20:28:11;28.40;53.10
7562;DHT22;3822;48.784;9.174;2023-09-07T20:30:38;28.30;53.40
7562;DHT22;3822;48.784;9.174;2023-09-07T20:33:08;28.30;53.80
7562;DHT22;3822;48.784;9.174;2023-09-07T20:35:41;28.20;54.00
7562;DHT22;3822;48.784;9.174;2023-09-07T20:44:36;28.00;54.60
7562;DHT22;3822;48.784;9.174;2023-09-07T20:50:12;27.90;54.70
7562;DHT22;3822;48.784;9.174;2023-09-07T20:52:43;27.80;54.80
7562;DHT22;3822;48.784;9.174;2023-09-07T20:55:19;27.60;54.70
7562;DHT22;3822;48.784;9.174;2023-09-07T20:58:00;27.70;54.90
7562;DHT22;3822;48.784;9.174;2023-09-07T21:03:29;27.50;55.20
7562;DHT22;3822;48.784;9.174;2023-09-07T21:09:10;27.40;55.60
7562;DHT22;3822;48.784;9.174;2023-09-07T21:11:56;27.40;55.90
7562;DHT22;3822;48.784;9.174;2023-09-07T21:14:23;27.30;56.10
7562;DHT22;3822;48.784;9.174;2023-09-07T21:17:04;27.20;56.20
7562;DHT22;3822;48.784;9.174;2023-09-07T21:19:39;27.10;56.50
7562;DHT22;3822;48.784;9.174;2023-09-07T21:25:09;27.00;57.00
7562;DHT22;3822;48.784;9.174;2023-09-07T21:27:37;26.90;57.20
7562;DHT22;3822;48.784;9.174;2023-09-07T21:30:15;26.90;57.50
7562;DHT22;3822;48.784;9.174;2023-09-07T21:32:47;26.80;57.70
7562;DHT22;3822;48.784;9.174;2023-09-07T21:38:32;26.70;58.10
7562;DHT22;3822;48.784;9.174;2023-09-07T21:44:14;26.50;58.60
7562;DHT22;3822;48.784;9.174;2023-09-07T21:46:43;26.50;59.00
7562;DHT22;3822;48.784;9.174;2023-09-07T21:49:10;26.40;59.20
7562;DHT22;3822;48.784;9.174;2023-09-07T21:54:27;26.30;59.60
7562;DHT22;3822;48.784;9.174;2023-09-07T21:56:54;26.30;59.80
7562;DHT22;3822;48.784;9.174;2023-09-07T21:59:29;26.20;60.00
7562;DHT22;3822;48.784;9.174;2023-09-07T22:01:56;26.20;60.20
7562;DHT22;3822;48.784;9.174;2023-09-07T22:04:26;26.20;60.40
7562;DHT22;3822;48.784;9.174;2023-09-07T22:09:44;26.00;60.80
7562;DHT22;3822;48.784;9.174;2023-09-07T22:12:10;26.00;61.00
7562;DHT22;3822;48.784;9.174;2023-09-07T22:14:46;26.00;61.30
7562;DHT22;3822;48.784;9.174;2023-09-07T22:20:20;25.80;61.80
7562;DHT22;3822;48.784;9.174;2023-09-07T22:22:49;25.70;62.00
7562;DHT22;3822;48.784;9.174;2023-09-07T22:28:36;25.60;62.60
7562;DHT22;3822;48.784;9.174;2023-09-07T22:31:15;25.50;62.80
7562;DHT22;3822;48.784;9.174;2023-09-07T22:33:45;25.50;63.10
7562;DHT22;3822;48.784;9.174;2023-09-07T22:36:14;25.40;63.20
7562;DHT22;3822;48.784;9.174;2023-09-07T22:38:46;25.40;63.40
7562;DHT22;3822;48.784;9.174;2023-09-07T22:41:13;25.40;63.60
7562;DHT22;3822;48.784;9.174;2023-09-07T22:43:39;25.30;63.70
7562;DHT22;3822;48.784;9.174;2023-09-07T22:49:52;25.20;64.00
7562;DHT22;3822;48.784;9.174;2023-09-07T22:52:21;25.20;64.20
7562;DHT22;3822;48.784;9.174;2023-09-07T23:01:23;25.00;64.60
7562;DHT22;3822;48.784;9.174;2023-09-07T23:03:59;24.90;64.70
7562;DHT22;3822;48.784;9.174;2023-09-07T23:06:37;24.90;65.00
7562;DHT22;3822;48.784;9.174;2023-09-07T23:09:08;24.80;65.10
7562;DHT22;3822;48.784;9.174;2023-09-07T23:11:44;24.80;65.40
7562;DHT22;3822;48.784;9.174;2023-09-07T23:14:22;24.70;65.50